Terminal Aerodrome Forecast
Issued by NWS

Current Version | Previous Version | Text Only | Print | Product List | Glossary On
Versions: 1 2 3 4 5 6 7 8 9 10 11 12 13 14 15 16 17 18 19 20 21 22 23 24 25 26
067
FTUS45 KPIH 241242 AAA
TAFSUN
TAF AMD
KSUN 241242Z 2413/2512 32005KT P6SM VCSH SCT025 OVC050
      TEMPO 2413/2416 4SM -SN SCT010 BKN025 OVC035
     FM241600 32005KT P6SM VCSH SCT015 BKN030 OVC050
     FM241900 VRB06KT P6SM SCT030 OVC050
     FM250300 32006KT P6SM SCT050
      AMD LTD TO CLD VIS AND WIND TIL 241400=

USA.gov is the U.S. government's official web portal to all federal, state and local government web resources and services.